logo
Search for airport 
image banner adimage banner adimage banner ad
image banner ad

VT57 - Malletts Head

Located in Colchester, United States

ICAO - VT57, IATA -

Data provided by Airmate  

General information

Coordinates: N44°33'38" W73°14'25"
Elevation is 95 feet MSL.
Magnetic variation is -15° East
View others Airports in Vermont

Operational data

Special qualification required
Current time UTC:
Current local time:
METAR: KBTV 171854Z 19010KT 10SM FEW045 SCT200 BKN250 28/17 A3003 RMK AO2 SLP167 T02780167
TAF: KBTV 171720Z 1718/1818 19010KT P6SM SCT070 FM172300 17005KT P6SM FEW060 FM181100 18007KT P6SM SCT200
View NOTAMs / SUP AIP / TFR affecting this airport [VIEW]
Communications frequencies: [VIEW]

Runways:

RWY identifierQFULength (ft)Width (ft)SurfaceLDA (ft)
12W30002000WATER
30W30002000WATER

Airport contact information

Address: Colchester United States

Satellite view of VT57